Capitol Logistics 1138


EDDW
Neuenland Airport
Bremen, DE
EBLG
Liège Airport
Liege, BE

Activity Log

Date Flight Route Aircraft Duration
09/03/2020 CPX1138 Not Available B738 0h 49m
11/07/2019 CPX738 Not Available B738 1h 30m
10/28/2019 CPX738 N0435F260 BASU4A BASUM UM170 OSN T884 ABAMI/N0430F240 T884 AGENI UZ158 LNO LNO4D B738 1h 04m
10/16/2019 CPX738 BASU4A BASUM UM170 BAM UZ158 LNO LNO4D B738 0h 54m

Route Details

Aircraft Information
Primary: Boeing 737-800BCF
Backup: Not Available
Route Data
Distance: 190nm
Sched. Duration: 0h 45m
Avg. Duration: 0h 84m (+39m)
Times Flown: 4
Recm'd Route: Not Available
Planned Altitude: 24,000ft
Origin Wx: EDDW 291820Z 22009KT 9999 -RA FEW027 BKN045 10/07 Q1015 BECMG RA
Dest. Wx: EBLG 291820Z 21015KT 9000 -RADZ FEW009 SCT014 BKN018 11/10 Q1017 TEMPO BKN014
Notes:

Financial History
Total Freight: 162,096lbs
Average Load: 40,524lbs/flt
Fuel Used: 21,723lbs
Avg. Fuel Used: 5,431lbs/flt
Fuel Expense: $17,378
Avg. Fuel Expense: $4,345
Avg. Fuel Cost: $0.80/lbs
Total Gross Income: $331,373
Pilot Pay: $936
Total Expenses: $35,996
Total Revenue: $277,042
Average Revenue: $82,843.20